Latest Coastal Weather Observations for Brisbane Airport

IDQ60701

Issued at 7:12 pm EST Saturday 23 July 2016 (issued every 10 minutes, with the page automatically refreshed every 10 minutes)

About coastal observations | Map of coastal stations | Coastal observations for QLD | Marine services | Other Formats
Station Details ID: 040842 Name: BRISBANE AERO Lat: -27.39 Lon: 153.13 Height: 4.51 m
Data from the previous 72 hours. | See also: Recent months at Brisbane Airport
Date/Time
EST
Temp
°C
Wind Pressure Rain since
9am
mm
Weather Cloud Vis
km
Sea
Height
m
Swell
Dir  Spd
kts
Gust
kts
hPa Trend Height
m
Period
s
Dir
23/07:00pm 22.9 WSW 10 14 1010.6 - 0.0 - - 10 - - - -
23/06:30pm 22.8 WSW 11 15 1009.9 - 0.0 - - 10 - - - -
23/06:00pm 24.0 WSW 12 16 1009.3 R 0.0 Fine Mostly clear 30 - - - -
23/05:30pm 25.4 WSW 13 17 1009.0 - 0.0 - - 10 - - - -
23/05:00pm 26.5 W 17 25 1008.4 - 0.0 - - 10 - - - -
23/04:30pm 27.6 W 18 24 1008.1 - 0.0 - - 10 - - - -
23/04:00pm 28.2 W 18 23 1007.7 - 0.0 - - 10 - - - -
23/03:30pm 28.4 W 13 17 1007.6 - 0.0 - - 10 - - - -
23/03:00pm 28.5 W 15 22 1007.5 R 0.0 Fine Mostly clear 30 - - - -
23/02:30pm 28.7 WSW 16 24 1007.3 - 0.0 - - 10 - - - -
23/02:00pm 28.8 WSW 21 32 1007.4 - 0.0 - - 10 - - - -
23/01:58pm 28.6 WSW 21 32 1007.3 - 0.0 - - 10 - - - -
23/01:30pm 28.3 WSW 17 22 1007.5 - 0.0 - - 10 - - - -
23/01:15pm 28.6 WSW 19 29 1007.6 - 0.0 - Partly cloudy 10 - - - -
23/01:00pm 27.8 W 16 21 1007.7 - 0.0 - Partly cloudy 10 - - - -
23/12:30pm 29.4 W 22 31 1007.8 - 0.0 - Partly cloudy 10 - - - -
23/12:12pm 29.0 W 19 31 1007.9 - 0.0 - Partly cloudy 10 - - - -
23/12:00pm 28.6 WSW 18 26 1008.0 F 0.0 Fine Mostly clear 30 - - - -
23/11:30am 28.3 W 19 26 1008.3 - 0.0 - Partly cloudy 10 - - - -
23/11:23am 28.8 W 16 26 1008.4 - 0.0 - Partly cloudy 10 - - - -
23/11:00am 28.4 W 14 21 1008.6 - 0.0 - Partly cloudy 10 - - - -
23/10:30am 27.8 NW 13 17 1008.9 - 0.0 - Mostly clear 10 - - - -
23/10:00am 25.1 N 12 17 1009.2 - 0.0 - Mostly clear 10 - - - -
23/09:30am 24.6 N 14 18 1009.6 - 0.0 - Mostly clear 10 - - - -
23/09:00am 24.3 N 15 18 1009.9 F 0.0 Fine Mostly clear 30 - - - -
23/08:30am 22.9 NNW 11 15 1010.2 - 0.2 - Mostly clear 10 - - - -
23/08:00am 22.2 NNW 11 14 1010.1 - 0.2 - Mostly clear 10 - - - -
23/07:30am 21.3 NNW 11 15 1010.1 - 0.2 - Mostly clear 10 - - - -
23/07:00am 20.6 NNW 12 14 1009.8 - 0.2 - Mostly clear 10 - - - -
23/06:30am 20.3 N 13 17 1009.5 - 0.2 - Mostly clear 10 - - - -
23/06:00am 20.6 N 15 17 1009.3 F 0.2 Haze Partly cloudy 25 - - - -
23/05:30am 20.7 N 15 19 1009.1 - 0.2 - Partly cloudy 10 - - - -
23/05:00am 20.9 NNW 14 17 1009.1 - 0.2 - Cloudy 10 - - - -
23/04:30am 20.8 NNW 14 16 1009.0 - 0.2 - Cloudy 10 - - - -
23/04:00am 20.2 NNW 12 15 1009.1 - 0.2 - Cloudy 10 - - - -
23/03:30am 20.0 NNW 11 15 1009.3 - 0.2 - Cloudy 10 - - - -
23/03:00am 20.0 NNW 12 14 1009.3 F 0.2 Haze Partly cloudy 20 - - - -
23/02:30am 18.7 NNW 10 11 1009.6 - 0.2 - Partly cloudy 10 - - - -
23/02:00am 18.8 NNW 13 15 1009.7 - 0.2 - Partly cloudy 10 - - - -
23/01:30am 17.8 NNW 7 9 1010.0 - 0.2 - Partly cloudy 10 - - - -
23/01:00am 18.7 NNW 8 9 1010.3 - 0.2 - Partly cloudy 10 - - - -
23/12:30am 19.3 NNW 7 9 1010.5 - 0.2 - - 10 - - - -
23/12:00am 19.0 N 8 10 1010.7 F 0.2 Haze Mostly clear 10 - - - -
 
Date/Time
EST
Temp
°C
Wind Pressure Rain since
9am
mm
Weather Cloud Vis
km
Sea
Height
m
Swell
Dir  Spd
kts
Gust
kts
hPa Trend Height
m
Period
s
Dir
22/11:30pm 18.9 N 7 9 1010.9 - 0.2 - - 10 - - - -
22/11:00pm 18.3 N 6 7 1011.1 - 0.2 - - 10 - - - -
22/10:30pm 18.5 NNW 6 6 1011.3 - 0.2 - - 10 - - - -
22/10:00pm 18.3 NNW 5 5 1011.4 - 0.2 - - 10 - - - -
22/09:30pm 18.6 N 6 7 1011.4 - 0.2 - - 10 - - - -
22/09:00pm 18.8 N 7 13 1011.5 F 0.2 Haze Mostly clear 20 - - - -
22/08:30pm 19.1 N 9 10 1011.5 - 0.2 - - 10 - - - -
22/08:00pm 19.3 N 8 10 1011.8 - 0.2 - - 10 - - - -
22/07:30pm 19.5 N 9 10 1011.8 - 0.2 - - 10 - - - -
22/07:00pm 19.2 N 8 9 1011.7 - 0.2 - - 10 - - - -
22/06:30pm 19.2 N 9 12 1011.6 - 0.2 - - 10 - - - -
22/06:00pm 19.5 N 9 12 1011.3 F 0.2 Haze Mostly clear 25 - - - -
22/05:30pm 20.0 N 10 13 1011.1 - 0.2 - Partly cloudy 10 - - - -
22/05:00pm 20.3 N 10 14 1011.0 - 0.2 - - 10 - - - -
22/04:30pm 21.3 N 12 16 1010.7 - 0.2 - Mostly clear 10 - - - -
22/04:00pm 21.1 N 13 15 1010.8 - 0.0 - Mostly clear 10 - - - -
22/03:30pm 22.7 NNE 13 16 1011.0 - 0.0 - Mostly clear 10 - - - -
22/03:00pm 23.4 NNE 10 13 1011.1 F 0.0 Haze Mostly clear 25 - - - -
22/02:30pm 23.9 NNE 12 14 1011.2 - 0.0 - Mostly clear 10 - - - -
22/02:00pm 24.2 NNE 10 13 1011.6 - 0.0 - Mostly clear 10 - - - -
22/01:30pm 24.0 NNE 11 14 1011.9 - 0.0 - Mostly clear 10 - - - -
22/01:00pm 24.1 NE 9 10 1012.4 - 0.0 - Mostly clear 10 - - - -
22/12:30pm 23.8 NNE 8 10 1013.1 - 0.0 - Mostly clear 10 - - - -
22/12:00pm 23.7 NNE 7 9 1013.8 F 0.0 Haze Mostly clear 25 - - - -
22/11:30am 23.2 NNE 6 8 1014.5 - 0.0 - Mostly clear 10 - - - -
22/11:00am 23.1 N 6 9 1015.1 - 0.0 - Mostly clear 10 - - - -
22/10:30am 22.8 N 6 8 1015.5 - 0.0 - Mostly clear 10 - - - -
22/10:00am 22.0 N 6 8 1015.8 - 0.0 - Mostly clear 10 - - - -
22/09:30am 21.3 WNW 4 7 1016.2 - 0.0 - Mostly clear 10 - - - -
22/09:00am 19.6 WSW 4 6 1016.4 F 0.0 Haze Mostly clear 12 - - - -
22/08:42am 18.7 SSW 3 5 1016.3 - 0.0 - Mostly clear 10 - - - -
22/08:30am 18.2 SSW 3 4 1016.3 - 0.0 Fog patches Mostly clear 8 - - - -
22/08:00am 17.1 CALM 0 1 1016.2 - 0.0 - Mostly clear 8 - - - -
22/07:30am 16.5 CALM 0 2 1015.9 - 0.0 Fog - 8 - - - -
22/07:00am 15.6 SW 4 6 1015.9 - 0.0 - - 10 - - - -
22/06:30am 15.1 SW 4 5 1015.8 - 0.0 Fog patches - 5 - - - -
22/06:00am 16.2 SSW 4 5 1015.5 F 0.0 Fog patches Clear 3 - - - -
22/05:30am 15.9 SW 4 5 1015.2 - 0.0 Fog - 0.8 - - - -
22/05:26am 15.9 SSW 4 5 1015.2 - 0.0 Fog - 0.8 - - - -
22/05:00am 15.8 SSW 4 4 1015.2 - 0.0 - - 2 - - - -
22/04:30am 15.8 SSW 5 5 1015.2 - 0.0 Shallow fog - 5 - - - -
22/04:00am 15.6 SSW 5 6 1015.4 - 0.0 - - 9 - - - -
22/03:30am 16.4 SSW 4 5 1015.7 - 0.0 Shallow fog - 10 - - - -
22/03:00am 16.4 SW 4 5 1015.8 F 0.0 Shallow fog Mostly clear 20 - - - -
22/02:30am 16.5 CALM 0 0 1015.9 - 0.0 Shallow fog - 10 - - - -
22/02:00am 16.9 CALM 0 0 1016.2 - 0.0 - - 10 - - - -
22/01:30am 17.3 S 4 5 1016.6 - 0.0 - - 10 - - - -
22/01:00am 18.8 SE 5 7 1016.6 - 0.0 - Partly cloudy 10 - - - -
22/12:30am 19.0 SE 5 7 1016.7 - 0.0 - Partly cloudy 10 - - - -
22/12:00am 18.8 SE 5 7 1016.7 R 0.0 Fine Partly cloudy 30 - - - -
 
Date/Time
EST
Temp
°C
Wind Pressure Rain since
9am
mm
Weather Cloud Vis
km
Sea
Height
m
Swell
Dir  Spd
kts
Gust
kts
hPa Trend Height
m
Period
s
Dir
21/11:30pm 18.6 ESE 5 7 1016.6 - 0.0 - Mostly clear 10 - - - -
21/11:00pm 18.2 SE 5 7 1016.6 - 0.0 - - 10 - - - -
21/10:30pm 18.1 ESE 5 6 1016.5 - 0.0 - - 10 - - - -
21/10:00pm 18.1 SE 6 7 1016.6 - 0.0 - - 10 - - - -
21/09:30pm 17.6 NNE 7 11 1016.2 - 0.0 - - 10 - - - -
21/09:00pm 17.6 NNE 3 5 1016.2 F 0.0 Fine Mostly clear 30 - - - -
21/08:30pm 18.2 NNE 4 6 1016.4 - 0.0 - Partly cloudy 10 - - - -
21/08:00pm 18.6 N 2 4 1016.5 - 0.0 - - 10 - - - -
21/07:30pm 18.4 N 5 7 1016.5 - 0.0 - - 10 - - - -
21/07:00pm 18.5 N 3 5 1016.5 - 0.0 - - 10 - - - -
21/06:30pm 18.9 N 7 8 1016.3 - 0.0 - Partly cloudy 10 - - - -
21/06:00pm 19.0 N 8 9 1015.9 F 0.0 Smoke Partly cloudy 25 - - - -
21/05:30pm 19.2 N 9 10 1015.6 - 0.0 - - 10 - - - -
21/05:00pm 19.6 N 9 11 1015.6 - 0.0 - Mostly clear 10 - - - -
21/04:30pm 20.7 NNE 11 14 1015.3 - 0.0 - Mostly clear 10 - - - -
21/04:00pm 21.6 NNE 11 14 1015.3 - 0.0 - Mostly clear 10 - - - -
21/03:30pm 21.9 NNE 11 14 1015.1 - 0.0 - Mostly clear 10 - - - -
21/03:00pm 22.7 NNE 12 15 1015.2 F 0.0 Smoke Mostly clear 25 - - - -
21/02:30pm 22.8 NNE 12 14 1015.2 - 0.0 - Mostly clear 10 - - - -
21/02:00pm 23.1 NNE 12 14 1015.5 - 0.0 - Mostly clear 10 - - - -
21/01:30pm 23.2 NNE 10 12 1015.9 - 0.0 - Mostly clear 10 - - - -
21/01:00pm 23.6 NNE 9 10 1016.2 - 0.0 - Mostly clear 10 - - - -
21/12:30pm 23.6 NNE 9 10 1016.7 - 0.0 - Mostly clear 10 - - - -
21/12:00pm 23.3 NNE 8 10 1017.1 F 0.0 Fine Mostly clear 30 - - - -
21/11:30am 23.8 NNE 7 8 1017.7 - 0.0 - Mostly clear 10 - - - -
21/11:00am 22.2 N 5 6 1018.2 - 0.0 - Mostly clear 10 - - - -
21/10:30am 21.8 N 4 5 1018.3 - 0.0 - Mostly clear 10 - - - -
21/10:00am 21.4 N 5 7 1018.6 - 0.0 - Mostly clear 10 - - - -
21/09:30am 21.0 NNW 5 7 1018.8 - 0.0 - Mostly clear 10 - - - -
21/09:00am 20.3 W 5 6 1019.1 F 0.4 Fine Mostly cloudy 30 - - - -
21/08:30am 19.3 NW 4 6 1019.1 - 0.4 - Mostly clear 10 - - - -
21/08:00am 18.3 WNW 4 7 1018.9 - 0.4 - Mostly clear 10 - - - -
21/07:30am 16.2 W 3 4 1018.7 - 0.4 - Mostly clear 10 - - - -
21/07:00am 15.9 W 3 4 1018.7 - 0.4 - Mostly clear 10 - - - -
21/06:30am 15.8 WNW 1 4 1018.4 - 0.4 - Partly cloudy 10 - - - -
21/06:00am 15.6 WSW 4 4 1018.1 F 0.4 Fine Partly cloudy 30 - - - -
21/05:30am 15.5 N 5 7 1018.2 - 0.4 - Mostly clear 10 - - - -
21/05:00am 15.2 N 4 5 1018.0 - 0.4 - Mostly clear 10 - - - -
21/04:30am 15.1 NW 3 4 1017.8 - 0.4 Shallow fog - 10 - - - -
21/04:00am 15.8 NW 4 5 1017.8 - 0.4 - - 10 - - - -
21/03:54am 15.7 NW 1 4 1017.8 - 0.4 Shallow fog - 10 - - - -
21/03:30am 16.5 NW 3 4 1018.1 - 0.4 - - 10 - - - -
21/03:00am 15.9 NNW 4 4 1018.4 F 0.4 Fine Partly cloudy 30 - - - -
21/02:30am 16.7 NNW 5 5 1018.5 - 0.4 - - 10 - - - -
21/02:00am 17.0 NNW 5 6 1018.5 - 0.4 - - 10 - - - -
21/01:30am 16.8 NNW 5 6 1018.8 - 0.4 - Mostly clear 10 - - - -
21/01:00am 16.9 N 4 5 1019.1 - 0.4 - - 10 - - - -
21/12:30am 17.3 NNW 5 6 1019.2 - 0.4 - Mostly clear 10 - - - -
21/12:00am 17.8 N 7 8 1019.2 F 0.4 Fine Partly cloudy 30 - - - -
 
Date/Time
EST
Temp
°C
Wind Pressure Rain since
9am
mm
Weather Cloud Vis
km
Sea
Height
m
Swell
Dir  Spd
kts
Gust
kts
hPa Trend Height
m
Period
s
Dir
20/11:30pm 18.5 N 8 9 1019.5 - 0.4 - Partly cloudy 10 - - - -
20/11:00pm 18.7 N 7 10 1019.8 - 0.4 - Mostly cloudy 10 - - - -
20/10:30pm 18.9 N 6 7 1019.9 - 0.4 - Mostly cloudy 10 - - - -
20/10:00pm 19.1 N 8 9 1019.8 - 0.4 - Mostly cloudy 10 - - - -
20/09:30pm 19.1 N 8 18 1019.8 - 0.4 - Mostly cloudy 10 - - - -
20/09:00pm 19.0 N 10 14 1019.7 F 0.4 Fine Partly cloudy 30 - - - -
20/08:30pm 18.9 N 12 15 1019.6 - 0.4 - - 10 - - - -
20/08:00pm 18.7 N 10 15 1019.6 - 0.4 - - 10 - - - -
20/07:30pm 19.1 N 9 13 1019.5 - 0.4 - - 10 - - - -

Other Formats:

Comma delimited format used in spreadsheet applications
http://www.bom.gov.au/fwo/IDQ60701/IDQ60701.94578.axf

JavaScript Object Notation format (JSON) in row-major order
http://www.bom.gov.au/fwo/IDQ60701/IDQ60701.94578.json